createdAt,value
2019-05-06T00:00:06.355Z,60.73
2019-05-06T00:02:35.537Z,60.94
2019-05-06T00:05:05.643Z,61.07
2019-05-06T00:07:34.810Z,61.60
2019-05-06T00:10:05.782Z,61.78
2019-05-06T00:12:35.062Z,61.97
2019-05-06T00:15:06.006Z,61.53
2019-05-06T00:17:35.170Z,62.17
2019-05-06T00:20:05.802Z,61.76
2019-05-06T00:22:34.985Z,61.75
2019-05-06T00:25:07.225Z,61.85
2019-05-06T00:27:47.016Z,61.60
2019-05-06T00:30:16.340Z,61.56
2019-05-06T00:32:45.490Z,61.48
2019-05-06T00:35:14.671Z,61.40
2019-05-06T00:37:44.264Z,61.30
2019-05-06T00:40:15.099Z,61.29
2019-05-06T00:42:54.092Z,61.43
2019-05-06T00:45:24.396Z,61.09
2019-05-06T00:47:53.687Z,61.46
2019-05-06T00:50:24.252Z,61.91
2019-05-06T00:52:54.688Z,62.09
2019-05-06T00:55:24.228Z,61.73
2019-05-06T00:57:54.494Z,61.97
2019-05-06T01:00:25.774Z,62.00
2019-05-06T01:02:55.037Z,62.02
2019-05-06T01:05:24.557Z,61.84
2019-05-06T01:07:54.931Z,61.72
2019-05-06T01:10:24.424Z,62.33
2019-05-06T01:13:01.370Z,62.56
2019-05-06T01:15:31.044Z,62.91
2019-05-06T01:18:00.211Z,62.58
2019-05-06T01:20:29.394Z,62.41
2019-05-06T01:22:58.550Z,62.99
2019-05-06T01:25:28.800Z,63.02
2019-05-06T01:27:57.954Z,62.82
2019-05-06T01:30:27.279Z,62.72
2019-05-06T01:32:56.595Z,63.19
2019-05-06T01:35:26.889Z,62.80
2019-05-06T01:38:00.575Z,62.98
2019-05-06T01:43:20.655Z,62.91
2019-05-06T01:45:49.828Z,62.81
2019-05-06T01:48:20.638Z,62.85
2019-05-06T01:50:49.815Z,62.50
2019-05-06T01:53:18.973Z,62.84
2019-05-06T01:55:48.144Z,62.67
2019-05-06T01:58:17.430Z,62.55
2019-05-06T02:00:46.639Z,62.65
2019-05-06T02:03:15.910Z,62.84
2019-05-06T02:05:45.099Z,62.67
2019-05-06T02:08:14.267Z,62.71
2019-05-06T02:10:43.651Z,62.88
2019-05-06T02:13:18.111Z,62.94
2019-05-06T02:15:50.270Z,62.85
2019-05-06T02:18:20.041Z,62.82
2019-05-06T02:20:51.075Z,62.76
2019-05-06T02:23:30.761Z,62.75
2019-05-06T02:25:59.941Z,63.01
2019-05-06T02:28:29.086Z,63.13
2019-05-06T02:30:59.873Z,63.43
2019-05-06T02:33:35.547Z,63.57
2019-05-06T02:36:08.750Z,63.37
2019-05-06T02:38:46.541Z,63.34
2019-05-06T02:41:08.821Z,63.37
2019-05-06T02:43:38.253Z,63.06
2019-05-06T02:46:07.393Z,63.41
2019-05-06T02:48:43.232Z,63.51
2019-05-06T02:51:13.626Z,63.33
2019-05-06T02:53:43.107Z,63.58
2019-05-06T02:56:13.351Z,63.50
2019-05-06T02:58:43.753Z,63.70
2019-05-06T03:01:19.167Z,63.49
2019-05-06T03:03:53.612Z,63.82
2019-05-06T03:06:27.687Z,63.79
2019-05-06T03:09:02.974Z,63.93
2019-05-06T03:11:36.056Z,63.91
2019-05-06T03:14:08.494Z,63.93
2019-05-06T03:16:43.702Z,63.94
2019-05-06T03:19:16.081Z,63.86
2019-05-06T03:21:49.988Z,64.04
2019-05-06T03:24:23.709Z,64.60
2019-05-06T03:26:59.758Z,64.33
2019-05-06T03:29:29.005Z,64.22
2019-05-06T03:31:58.272Z,64.45
2019-05-06T03:34:57.672Z,64.24
2019-05-06T03:37:16.255Z,64.21
2019-05-06T03:39:46.118Z,63.99
2019-05-06T03:42:19.436Z,64.20
2019-05-06T03:44:53.286Z,64.74
2019-05-06T03:47:34.462Z,64.93
2019-05-06T03:50:04.787Z,64.50
2019-05-06T03:52:39.409Z,64.79
2019-05-06T03:55:13.980Z,64.64
2019-05-06T03:57:46.075Z,64.73
2019-05-06T04:00:16.507Z,64.76
2019-05-06T04:02:54.125Z,65.37
2019-05-06T04:05:24.053Z,65.35
2019-05-06T04:07:53.353Z,65.30
2019-05-06T04:10:26.568Z,65.12
2019-05-06T04:12:55.988Z,65.12
2019-05-06T04:15:27.032Z,64.93
2019-05-06T04:17:58.297Z,64.92
2019-05-06T04:20:33.954Z,64.86
2019-05-06T04:23:06.774Z,64.87
2019-05-06T04:25:59.923Z,65.33
2019-05-06T04:28:43.605Z,65.15
2019-05-06T04:31:14.778Z,65.40
2019-05-06T04:34:05.349Z,65.35
2019-05-06T04:36:17.969Z,65.74
2019-05-06T04:38:48.505Z,65.99
2019-05-06T04:41:23.101Z,66.17
2019-05-06T04:43:53.559Z,65.80
2019-05-06T04:46:28.617Z,66.76
2019-05-06T04:49:10.192Z,66.44
2019-05-06T04:51:43.329Z,66.32
2019-05-06T04:54:15.334Z,66.13
2019-05-06T04:56:44.718Z,66.03
2019-05-06T04:59:19.487Z,66.07
2019-05-06T05:01:53.744Z,66.14
2019-05-06T05:04:31.693Z,65.94
2019-05-06T05:06:57.859Z,65.97
2019-05-06T05:09:27.901Z,65.94
2019-05-06T05:11:59.019Z,66.00
2019-05-06T05:14:32.667Z,65.98
2019-05-06T05:17:07.198Z,65.94
2019-05-06T05:19:43.941Z,65.95
2019-05-06T05:22:18.533Z,65.68
2019-05-06T05:24:51.951Z,66.14
2019-05-06T05:27:22.142Z,66.29
2019-05-06T05:29:52.281Z,65.93
2019-05-06T05:32:26.731Z,66.17
2019-05-06T05:34:57.137Z,66.17
2019-05-06T05:37:28.242Z,66.04
2019-05-06T05:40:03.079Z,66.29
2019-05-06T05:42:36.997Z,66.31
2019-05-06T05:45:07.398Z,66.46
2019-05-06T05:47:42.529Z,66.25
2019-05-06T05:50:22.910Z,66.20
2019-05-06T05:52:57.472Z,66.62
2019-05-06T05:55:28.612Z,66.23
2019-05-06T05:58:05.295Z,66.28
2019-05-06T06:00:37.101Z,66.07
2019-05-06T06:03:12.666Z,66.18
2019-05-06T06:05:46.501Z,66.07
2019-05-06T06:08:21.824Z,65.98
2019-05-06T06:10:56.484Z,66.01
2019-05-06T06:13:32.001Z,65.98
2019-05-06T06:16:07.481Z,65.91
2019-05-06T06:18:44.489Z,65.90
2019-05-06T06:21:34.494Z,65.72
2019-05-06T06:24:14.147Z,65.87
2019-05-06T06:26:46.740Z,65.70
2019-05-06T06:29:18.436Z,65.63
2019-05-06T06:32:10.581Z,65.57
2019-05-06T06:34:44.547Z,65.26
2019-05-06T06:37:28.735Z,65.06
2019-05-06T06:40:07.543Z,64.90
2019-05-06T06:42:40.182Z,64.63
2019-05-06T06:45:09.669Z,64.39
2019-05-06T06:47:43.889Z,64.31
2019-05-06T06:50:13.749Z,64.16
2019-05-06T06:52:45.125Z,64.02
2019-05-06T06:55:18.538Z,64.10
2019-05-06T06:57:51.958Z,63.85
2019-05-06T07:00:29.149Z,63.44
2019-05-06T07:03:03.464Z,63.28
2019-05-06T07:05:42.326Z,62.92
2019-05-06T07:08:15.857Z,63.09
2019-05-06T07:10:45.286Z,62.51
2019-05-06T07:13:23.216Z,62.78
2019-05-06T07:15:54.968Z,62.54
2019-05-06T07:18:24.650Z,62.36
2019-05-06T07:20:57.736Z,61.86
2019-05-06T07:23:32.862Z,61.38
2019-05-06T07:26:03.167Z,61.40
2019-05-06T07:28:43.718Z,61.95
2019-05-06T07:31:21.139Z,61.47
2019-05-06T07:33:48.310Z,61.21
2019-05-06T07:36:20.211Z,61.55
2019-05-06T07:38:52.988Z,60.84
2019-05-06T07:41:32.509Z,61.36
2019-05-06T07:44:05.635Z,61.10
2019-05-06T07:46:42.765Z,60.64
2019-05-06T07:49:12.706Z,60.69
2019-05-06T07:51:45.486Z,60.17
2019-05-06T07:54:17.377Z,59.24
2019-05-06T07:56:52.444Z,59.06
2019-05-06T07:59:23.660Z,58.76
2019-05-06T08:01:56.634Z,58.25
2019-05-06T08:04:28.286Z,58.19
2019-05-06T08:06:59.882Z,57.61
2019-05-06T08:09:29.186Z,56.20
2019-05-06T08:12:02.791Z,56.47
2019-05-06T08:14:43.862Z,56.64
2019-05-06T08:17:17.962Z,55.72
2019-05-06T08:19:50.212Z,55.64
2019-05-06T08:22:22.711Z,54.98
2019-05-06T08:24:53.211Z,53.75
2019-05-06T08:27:27.459Z,55.52
2019-05-06T08:29:57.010Z,56.94
2019-05-06T08:32:26.388Z,56.62
2019-05-06T08:34:56.253Z,55.42
2019-05-06T08:37:36.895Z,56.68
2019-05-06T08:40:11.954Z,56.60
2019-05-06T08:42:42.532Z,55.18
2019-05-06T08:45:16.231Z,54.99
2019-05-06T08:47:45.435Z,53.61
2019-05-06T08:50:34.715Z,54.47
2019-05-06T08:53:15.457Z,53.43
2019-05-06T08:55:48.462Z,52.17
2019-05-06T08:58:22.482Z,52.87
2019-05-06T09:01:09.573Z,52.49
2019-05-06T09:03:42.246Z,51.91
2019-05-06T09:06:26.500Z,52.57
2019-05-06T09:08:46.101Z,52.23
2019-05-06T09:11:19.362Z,52.20
2019-05-06T09:13:51.992Z,53.09
2019-05-06T09:16:22.979Z,53.73
2019-05-06T09:18:53.544Z,53.35
2019-05-06T09:21:23.256Z,52.37
2019-05-06T09:23:59.312Z,51.22
2019-05-06T09:26:39.029Z,52.50
2019-05-06T09:29:12.819Z,52.09
2019-05-06T09:31:46.651Z,52.31
2019-05-06T09:34:32.593Z,51.05
2019-05-06T09:37:18.454Z,49.79
2019-05-06T09:39:48.329Z,49.19
2019-05-06T09:42:19.162Z,49.21
2019-05-06T09:44:50.624Z,48.51
2019-05-06T09:47:26.503Z,49.28
2019-05-06T09:49:58.502Z,48.82
2019-05-06T09:52:29.407Z,49.02
2019-05-06T09:55:03.516Z,48.00
2019-05-06T09:57:36.149Z,48.19
2019-05-06T10:00:08.084Z,48.25
2019-05-06T10:02:39.651Z,48.73
2019-05-06T10:05:11.975Z,49.51
2019-05-06T10:07:41.273Z,49.94
2019-05-06T10:10:10.571Z,49.82
2019-05-06T10:12:42.024Z,49.38
2019-05-06T10:15:12.729Z,49.87
2019-05-06T10:17:43.317Z,49.38
2019-05-06T10:20:15.318Z,48.80
2019-05-06T10:22:45.470Z,48.07
2019-05-06T10:25:16.833Z,47.95
2019-05-06T10:27:52.506Z,47.46
2019-05-06T10:30:25.084Z,46.69
2019-05-06T10:32:56.103Z,47.14
2019-05-06T10:35:29.495Z,47.83
2019-05-06T10:38:15.238Z,48.90
2019-05-06T10:41:03.664Z,48.18
2019-05-06T10:43:43.097Z,47.19
2019-05-06T10:46:13.167Z,47.35
2019-05-06T10:48:42.684Z,48.26
2019-05-06T10:51:17.293Z,47.62
2019-05-06T10:53:51.254Z,48.22
2019-05-06T10:56:32.191Z,47.30
2019-05-06T10:59:08.591Z,46.76
2019-05-06T11:01:43.378Z,46.00
2019-05-06T11:04:15.342Z,46.38
2019-05-06T11:06:45.562Z,46.61
2019-05-06T11:09:14.835Z,46.68
2019-05-06T11:11:44.539Z,46.97
2019-05-06T11:14:15.353Z,47.93
2019-05-06T11:16:46.411Z,48.47
2019-05-06T11:19:17.810Z,47.40
2019-05-06T11:21:53.171Z,47.69
2019-05-06T11:24:26.679Z,46.00
2019-05-06T11:26:58.704Z,46.32
2019-05-06T11:29:33.913Z,46.55
2019-05-06T11:32:09.477Z,47.07
2019-05-06T11:34:42.906Z,47.04
2019-05-06T11:37:43.825Z,46.37
2019-05-06T11:40:01.654Z,45.76
2019-05-06T11:42:35.286Z,44.25
2019-05-06T11:45:03.420Z,44.66
2019-05-06T11:47:35.238Z,46.24
2019-05-06T11:50:08.446Z,47.46
2019-05-06T11:52:37.987Z,47.43
2019-05-06T11:55:08.881Z,47.27
2019-05-06T11:57:42.064Z,46.55
2019-05-06T12:00:15.151Z,46.74
2019-05-06T12:02:48.577Z,45.83
2019-05-06T12:05:18.463Z,46.44
2019-05-06T12:08:01.798Z,47.02
2019-05-06T12:10:23.042Z,47.80
2019-05-06T12:12:55.654Z,48.46
2019-05-06T12:15:27.247Z,48.18
2019-05-06T12:18:04.020Z,47.40
2019-05-06T12:20:35.841Z,47.35
2019-05-06T12:23:05.697Z,46.50
2019-05-06T12:25:38.307Z,46.18
2019-05-06T12:28:09.101Z,46.80
2019-05-06T12:30:42.600Z,47.92
2019-05-06T12:33:13.251Z,48.31
2019-05-06T12:35:45.644Z,47.81
2019-05-06T12:38:29.498Z,46.53
2019-05-06T12:40:52.983Z,46.67
2019-05-06T12:43:29.769Z,46.79
2019-05-06T12:46:07.258Z,46.71
2019-05-06T12:48:47.300Z,47.28
2019-05-06T12:51:22.722Z,47.64
2019-05-06T12:53:53.127Z,46.38
2019-05-06T12:56:27.873Z,46.68
2019-05-06T12:58:59.437Z,47.20
2019-05-06T13:01:33.958Z,46.99
2019-05-06T13:04:05.354Z,48.21
2019-05-06T13:06:45.840Z,48.67
2019-05-06T13:09:16.060Z,49.03
2019-05-06T13:11:47.553Z,49.45
2019-05-06T13:14:22.384Z,49.55
2019-05-06T13:16:53.693Z,49.86
2019-05-06T13:19:25.892Z,49.94
2019-05-06T13:21:57.731Z,50.18
2019-05-06T13:24:29.537Z,50.07
2019-05-06T13:27:02.626Z,50.26
2019-05-06T13:29:36.821Z,50.55
2019-05-06T13:32:12.763Z,50.71
2019-05-06T13:34:44.954Z,50.90
2019-05-06T13:37:15.157Z,51.02
2019-05-06T13:39:48.643Z,51.15
2019-05-06T13:42:22.609Z,51.15
2019-05-06T13:44:53.665Z,51.34
2019-05-06T13:47:41.674Z,51.43
2019-05-06T13:50:15.406Z,51.43
2019-05-06T13:52:48.258Z,51.39
2019-05-06T13:55:21.914Z,51.53
2019-05-06T13:57:53.221Z,51.40
2019-05-06T14:00:26.438Z,51.43
2019-05-06T14:02:57.666Z,51.42
2019-05-06T14:05:26.818Z,51.47
2019-05-06T14:08:02.555Z,51.60
2019-05-06T14:10:33.917Z,51.65
2019-05-06T14:13:03.276Z,51.70
2019-05-06T14:15:35.005Z,51.70
2019-05-06T14:18:13.730Z,51.86
2019-05-06T14:20:44.863Z,51.79
2019-05-06T14:23:16.675Z,51.67
2019-05-06T14:25:58.784Z,51.65
2019-05-06T14:28:33.138Z,51.68
2019-05-06T14:31:08.571Z,51.72
2019-05-06T14:33:42.799Z,51.45
2019-05-06T14:36:13.790Z,51.43
2019-05-06T14:38:46.036Z,51.35
2019-05-06T14:41:18.833Z,51.04
2019-05-06T14:43:52.893Z,50.51
2019-05-06T14:46:24.475Z,50.10
2019-05-06T14:48:55.917Z,50.22
2019-05-06T14:51:25.468Z,50.24
2019-05-06T14:53:54.745Z,50.10
2019-05-06T14:56:34.974Z,50.31
2019-05-06T14:59:07.130Z,49.66
2019-05-06T15:01:39.854Z,49.26
2019-05-06T15:04:12.565Z,49.48
2019-05-06T15:06:42.691Z,49.36
2019-05-06T15:09:15.014Z,50.09
2019-05-06T15:11:46.943Z,49.70
2019-05-06T15:14:16.384Z,49.51
2019-05-06T15:16:53.413Z,49.75
2019-05-06T15:19:25.077Z,50.32
2019-05-06T15:21:57.327Z,50.46
2019-05-06T15:24:26.677Z,50.75
2019-05-06T15:26:58.794Z,50.82
2019-05-06T15:29:28.052Z,51.24
2019-05-06T15:32:03.112Z,51.48
2019-05-06T15:34:35.923Z,51.61
2019-05-06T15:37:26.117Z,51.83
2019-05-06T15:39:58.104Z,51.96
2019-05-06T15:42:28.856Z,52.10
2019-05-06T15:44:59.217Z,52.16
2019-05-06T15:47:32.111Z,52.55
2019-05-06T15:50:01.283Z,53.38
2019-05-06T15:52:32.465Z,53.84
2019-05-06T15:55:03.246Z,54.14
2019-05-06T15:57:32.903Z,54.04
2019-05-06T16:00:02.750Z,54.48
2019-05-06T16:02:33.904Z,54.95
2019-05-06T16:05:11.614Z,54.95
2019-05-06T16:07:37.202Z,55.38
2019-05-06T16:10:07.574Z,55.27
2019-05-06T16:12:36.784Z,55.56
2019-05-06T16:15:12.840Z,55.55
2019-05-06T16:17:42.615Z,55.93
2019-05-06T16:20:12.981Z,55.83
2019-05-06T16:22:44.616Z,56.15
2019-05-06T16:25:16.537Z,55.97
2019-05-06T16:27:51.243Z,56.01
2019-05-06T16:30:24.084Z,56.14
2019-05-06T16:32:52.711Z,55.83
2019-05-06T16:35:22.886Z,55.90
2019-05-06T16:37:52.278Z,55.44
2019-05-06T16:40:24.603Z,56.00
2019-05-06T16:42:56.745Z,55.63
2019-05-06T16:45:26.744Z,55.65
2019-05-06T16:47:56.151Z,55.74
2019-05-06T16:50:29.584Z,55.62
2019-05-06T16:53:02.764Z,56.04
2019-05-06T16:55:55.050Z,55.78
2019-05-06T16:58:25.334Z,56.79
2019-05-06T17:00:54.577Z,56.68
2019-05-06T17:03:25.536Z,56.46
2019-05-06T17:06:15.659Z,56.43
2019-05-06T17:08:44.862Z,56.71
2019-05-06T17:11:26.864Z,56.50
2019-05-06T17:13:46.224Z,56.43
2019-05-06T17:16:15.859Z,57.24
2019-05-06T17:18:45.044Z,56.85
2019-05-06T17:21:15.920Z,57.01
2019-05-06T17:23:47.635Z,57.13
2019-05-06T17:26:16.875Z,57.37
2019-05-06T17:28:57.045Z,57.31
2019-05-06T17:31:44.721Z,57.10
2019-05-06T17:34:32.252Z,57.00
2019-05-06T17:37:06.341Z,57.02
2019-05-06T17:39:42.410Z,56.77
2019-05-06T17:42:14.091Z,56.82
2019-05-06T17:44:43.410Z,56.81
2019-05-06T17:47:32.944Z,56.71
2019-05-06T17:50:05.279Z,56.93
2019-05-06T17:52:34.472Z,56.95
2019-05-06T17:55:04.223Z,57.22
2019-05-06T17:57:33.245Z,57.48
2019-05-06T18:00:04.308Z,57.37
2019-05-06T18:02:33.427Z,57.28
2019-05-06T18:05:03.579Z,57.25
2019-05-06T18:07:33.104Z,57.10
2019-05-06T18:10:03.216Z,57.42
2019-05-06T18:12:36.076Z,57.34
2019-05-06T18:15:06.493Z,57.27
2019-05-06T18:17:35.855Z,57.47
2019-05-06T18:20:06.610Z,57.09
2019-05-06T18:22:35.875Z,57.08
2019-05-06T18:25:05.790Z,57.32
2019-05-06T18:27:37.152Z,57.33
2019-05-06T18:30:17.736Z,57.27
2019-05-06T18:32:38.485Z,57.28
2019-05-06T18:35:08.516Z,57.80
2019-05-06T18:37:37.743Z,57.71
2019-05-06T18:40:06.996Z,57.95
2019-05-06T18:42:36.541Z,58.01
2019-05-06T18:45:08.458Z,57.94
2019-05-06T18:47:37.849Z,58.09
2019-05-06T18:50:09.959Z,58.04
2019-05-06T18:52:40.519Z,57.97
2019-05-06T18:55:12.245Z,57.98
2019-05-06T18:57:42.335Z,57.95
2019-05-06T19:00:11.971Z,58.15
2019-05-06T19:02:42.336Z,58.02
2019-05-06T19:05:19.332Z,57.97
2019-05-06T19:07:48.544Z,58.00
2019-05-06T19:10:33.228Z,58.12
2019-05-06T19:13:02.715Z,58.07
2019-05-06T19:15:33.363Z,57.93
2019-05-06T19:18:02.567Z,57.96
2019-05-06T19:20:33.873Z,57.97
2019-05-06T19:23:03.293Z,57.92
2019-05-06T19:25:34.690Z,57.93
2019-05-06T19:28:05.269Z,57.80
2019-05-06T19:30:36.431Z,57.70
2019-05-06T19:33:07.172Z,57.69
2019-05-06T19:35:37.117Z,57.80
2019-05-06T19:38:06.412Z,57.83
2019-05-06T19:40:35.592Z,57.81
2019-05-06T19:43:04.891Z,57.75
2019-05-06T19:45:34.651Z,57.66
2019-05-06T19:48:03.468Z,57.62
2019-05-06T19:50:33.174Z,57.56
2019-05-06T19:53:01.745Z,57.52
2019-05-06T19:55:30.917Z,57.42
2019-05-06T19:58:02.199Z,57.35
2019-05-06T20:00:32.569Z,57.34
2019-05-06T20:03:02.709Z,57.49
2019-05-06T20:05:39.587Z,57.40
2019-05-06T20:08:23.163Z,57.58
2019-05-06T20:11:13.099Z,57.60
2019-05-06T20:13:43.140Z,57.51
2019-05-06T20:16:12.421Z,57.40
2019-05-06T20:18:42.575Z,57.27
2019-05-06T20:21:12.107Z,57.26
2019-05-06T20:23:42.528Z,57.35
2019-05-06T20:26:12.484Z,57.43
2019-05-06T20:28:42.969Z,57.58
2019-05-06T20:31:12.439Z,57.62
2019-05-06T20:33:42.160Z,57.64
2019-05-06T20:36:12.575Z,57.71
2019-05-06T20:38:42.393Z,57.53
2019-05-06T20:41:12.620Z,57.66
2019-05-06T20:43:42.416Z,57.54
2019-05-06T20:46:12.412Z,57.68
2019-05-06T20:48:42.148Z,57.64
2019-05-06T20:51:12.324Z,57.54
2019-05-06T20:53:43.145Z,57.63
2019-05-06T20:56:12.524Z,57.67
2019-05-06T20:58:42.312Z,57.71
2019-05-06T21:01:11.493Z,57.96
2019-05-06T21:03:42.358Z,57.93
2019-05-06T21:06:13.152Z,58.00
2019-05-06T21:08:42.891Z,58.01
2019-05-06T21:11:25.658Z,58.08
2019-05-06T21:13:43.320Z,57.93
2019-05-06T21:16:13.019Z,57.99
2019-05-06T21:18:42.309Z,58.13
2019-05-06T21:21:13.461Z,58.08
2019-05-06T21:23:42.828Z,58.15
2019-05-06T21:26:13.642Z,58.15
2019-05-06T21:28:46.292Z,58.07
2019-05-06T21:31:13.904Z,58.16
2019-05-06T21:33:43.067Z,58.15
2019-05-06T21:36:12.481Z,58.04
2019-05-06T21:38:42.728Z,58.12
2019-05-06T21:41:12.880Z,58.27
2019-05-06T21:43:47.038Z,58.13
2019-05-06T21:46:13.945Z,58.17
2019-05-06T21:48:43.112Z,58.22
2019-05-06T21:51:12.834Z,58.20
2019-05-06T21:53:42.020Z,58.23
2019-05-06T21:56:13.047Z,58.15
2019-05-06T21:58:42.864Z,58.06
2019-05-06T22:01:12.415Z,58.03
2019-05-06T22:03:43.384Z,58.01
2019-05-06T22:06:13.072Z,58.01
2019-05-06T22:08:46.257Z,58.00
2019-05-06T22:11:19.894Z,57.93
2019-05-06T22:14:00.835Z,57.90
2019-05-06T22:16:29.825Z,57.85
2019-05-06T22:19:06.778Z,57.90
2019-05-06T22:21:37.604Z,57.93
2019-05-06T22:24:06.775Z,58.01
2019-05-06T22:26:35.937Z,58.02
2019-05-06T22:29:05.451Z,58.08
2019-05-06T22:31:34.622Z,58.11
2019-05-06T22:34:03.781Z,58.09
2019-05-06T22:36:32.967Z,58.36
2019-05-06T22:39:05.760Z,58.26
2019-05-06T22:41:34.922Z,58.25
2019-05-06T22:44:13.047Z,58.33
2019-05-06T22:46:34.998Z,58.41
2019-05-06T22:49:04.162Z,58.33
2019-05-06T22:51:33.336Z,58.32
2019-05-06T22:54:02.906Z,58.32
2019-05-06T22:56:32.562Z,58.28
2019-05-06T22:59:03.255Z,58.25
2019-05-06T23:01:37.336Z,58.22
2019-05-06T23:04:07.497Z,58.28
2019-05-06T23:06:36.719Z,58.41
2019-05-06T23:09:08.242Z,58.51
2019-05-06T23:11:38.159Z,58.43
2019-05-06T23:14:06.586Z,58.39
2019-05-06T23:16:35.778Z,58.22
2019-05-06T23:19:05.105Z,58.34
2019-05-06T23:21:34.260Z,58.43
2019-05-06T23:24:03.445Z,58.48
2019-05-06T23:26:32.710Z,58.68
2019-05-06T23:29:02.546Z,58.62
2019-05-06T23:31:33.286Z,58.60
2019-05-06T23:34:04.961Z,58.54
2019-05-06T23:36:57.003Z,58.53
2019-05-06T23:40:04.786Z,58.65
2019-05-06T23:43:12.516Z,58.73
2019-05-06T23:46:17.594Z,59.07
2019-05-06T23:49:23.499Z,59.02
2019-05-06T23:52:31.896Z,58.96
2019-05-06T23:55:37.261Z,58.79
2019-05-06T23:58:05.411Z,58.70
